sensor_id;sensor_type;location;lat;lon;timestamp;pressure;altitude;pressure_sealevel;temperature;humidity
47706;BME280;33471;52.104;1.318;2023-06-24T00:01:56;102000.81;;;22.17;42.65
47706;BME280;33471;52.104;1.318;2023-06-24T00:04:22;102004.25;;;21.93;42.43
47706;BME280;33471;52.104;1.318;2023-06-24T00:06:50;102003.10;;;22.62;42.10
47706;BME280;33471;52.104;1.318;2023-06-24T00:09:17;102002.26;;;22.60;42.03
47706;BME280;33471;52.104;1.318;2023-06-24T00:11:44;102006.42;;;22.71;41.87
47706;BME280;33471;52.104;1.318;2023-06-24T00:14:11;102003.76;;;22.73;41.67
47706;BME280;33471;52.104;1.318;2023-06-24T00:16:38;102006.69;;;22.75;41.67
47706;BME280;33471;52.104;1.318;2023-06-24T00:19:05;102002.79;;;22.75;41.67
47706;BME280;33471;52.104;1.318;2023-06-24T00:21:32;102004.44;;;22.75;41.72
47706;BME280;33471;52.104;1.318;2023-06-24T00:24:00;102003.63;;;22.53;41.65
47706;BME280;33471;52.104;1.318;2023-06-24T00:26:27;102001.40;;;22.56;41.47
47706;BME280;33471;52.104;1.318;2023-06-24T00:28:54;102000.82;;;22.75;41.49
47706;BME280;33471;52.104;1.318;2023-06-24T00:31:22;102004.09;;;22.75;41.47
47706;BME280;33471;52.104;1.318;2023-06-24T00:33:48;102005.00;;;22.54;41.41
47706;BME280;33471;52.104;1.318;2023-06-24T00:36:16;102004.00;;;22.74;41.44
47706;BME280;33471;52.104;1.318;2023-06-24T00:38:43;102004.14;;;22.77;41.48
47706;BME280;33471;52.104;1.318;2023-06-24T00:41:10;102007.75;;;22.81;41.46
47706;BME280;33471;52.104;1.318;2023-06-24T00:43:37;102012.79;;;22.63;41.13
47706;BME280;33471;52.104;1.318;2023-06-24T00:46:04;102013.13;;;22.82;40.96
47706;BME280;33471;52.104;1.318;2023-06-24T00:48:31;102011.90;;;22.83;40.86
47706;BME280;33471;52.104;1.318;2023-06-24T00:50:58;102011.34;;;22.73;40.95
47706;BME280;33471;52.104;1.318;2023-06-24T00:53:24;102010.61;;;22.52;40.78
47706;BME280;33471;52.104;1.318;2023-06-24T00:55:54;102008.12;;;22.47;40.98
47706;BME280;33471;52.104;1.318;2023-06-24T00:58:23;102010.86;;;21.88;40.64
47706;BME280;33471;52.104;1.318;2023-06-24T01:00:51;102008.61;;;21.69;41.12
47706;BME280;33471;52.104;1.318;2023-06-24T01:03:18;102008.00;;;22.02;40.73
47706;BME280;33471;52.104;1.318;2023-06-24T01:05:46;102010.95;;;22.47;39.97
47706;BME280;33471;52.104;1.318;2023-06-24T01:08:13;102008.54;;;22.39;40.03
47706;BME280;33471;52.104;1.318;2023-06-24T01:10:41;102006.93;;;22.61;39.69
47706;BME280;33471;52.104;1.318;2023-06-24T01:13:09;102008.40;;;22.60;39.71
47706;BME280;33471;52.104;1.318;2023-06-24T01:15:37;102008.90;;;22.35;40.17
47706;BME280;33471;52.104;1.318;2023-06-24T01:18:09;102002.72;;;22.43;40.01
47706;BME280;33471;52.104;1.318;2023-06-24T01:20:43;102001.56;;;22.10;40.47
47706;BME280;33471;52.104;1.318;2023-06-24T01:23:27;101998.11;;;22.27;40.20
47706;BME280;33471;52.104;1.318;2023-06-24T01:26:20;101996.27;;;22.13;40.37
47706;BME280;33471;52.104;1.318;2023-06-24T01:29:07;101993.02;;;21.93;40.59
47706;BME280;33471;52.104;1.318;2023-06-24T01:31:39;101988.23;;;22.09;40.42
47706;BME280;33471;52.104;1.318;2023-06-24T01:34:16;101983.91;;;22.27;40.51
47706;BME280;33471;52.104;1.318;2023-06-24T01:36:53;101981.77;;;22.38;40.25
47706;BME280;33471;52.104;1.318;2023-06-24T01:39:23;101981.95;;;22.15;40.23
47706;BME280;33471;52.104;1.318;2023-06-24T01:41:56;101982.18;;;22.04;40.24
47706;BME280;33471;52.104;1.318;2023-06-24T01:44:28;101981.35;;;22.04;40.37
47706;BME280;33471;52.104;1.318;2023-06-24T01:46:57;101982.37;;;22.45;40.24
47706;BME280;33471;52.104;1.318;2023-06-24T01:49:29;101986.41;;;21.86;40.62
47706;BME280;33471;52.104;1.318;2023-06-24T01:51:59;101986.76;;;22.13;40.34
47706;BME280;33471;52.104;1.318;2023-06-24T01:54:28;101987.27;;;22.12;40.74
47706;BME280;33471;52.104;1.318;2023-06-24T01:56:57;101983.42;;;22.06;40.97
47706;BME280;33471;52.104;1.318;2023-06-24T01:59:28;101978.80;;;22.11;41.07
47706;BME280;33471;52.104;1.318;2023-06-24T02:01:57;101976.24;;;22.14;41.16
47706;BME280;33471;52.104;1.318;2023-06-24T02:04:27;101974.89;;;22.16;41.16
47706;BME280;33471;52.104;1.318;2023-06-24T02:06:55;101977.03;;;22.17;41.14
47706;BME280;33471;52.104;1.318;2023-06-24T02:09:23;101979.41;;;22.16;41.19
47706;BME280;33471;52.104;1.318;2023-06-24T02:11:51;101981.89;;;22.07;41.23
47706;BME280;33471;52.104;1.318;2023-06-24T02:14:21;101985.06;;;21.95;41.38
47706;BME280;33471;52.104;1.318;2023-06-24T02:16:50;101981.25;;;22.23;41.71
47706;BME280;33471;52.104;1.318;2023-06-24T02:19:18;101977.50;;;21.89;41.85
47706;BME280;33471;52.104;1.318;2023-06-24T02:21:46;101983.67;;;22.07;41.95
47706;BME280;33471;52.104;1.318;2023-06-24T02:24:14;101985.56;;;21.96;42.00
47706;BME280;33471;52.104;1.318;2023-06-24T02:26:41;101987.86;;;21.94;41.96
47706;BME280;33471;52.104;1.318;2023-06-24T02:29:09;101990.53;;;21.39;42.01
47706;BME280;33471;52.104;1.318;2023-06-24T02:31:38;101990.71;;;21.67;42.23
47706;BME280;33471;52.104;1.318;2023-06-24T02:34:06;101990.13;;;21.64;42.37
47706;BME280;33471;52.104;1.318;2023-06-24T02:36:33;101989.17;;;21.61;42.49
47706;BME280;33471;52.104;1.318;2023-06-24T02:39:01;101989.75;;;21.63;42.50
47706;BME280;33471;52.104;1.318;2023-06-24T02:41:28;101990.24;;;21.50;42.64
47706;BME280;33471;52.104;1.318;2023-06-24T02:43:55;101990.15;;;21.15;43.25
47706;BME280;33471;52.104;1.318;2023-06-24T02:46:23;101991.90;;;21.00;43.23
47706;BME280;33471;52.104;1.318;2023-06-24T02:48:51;101991.34;;;20.84;44.63
47706;BME280;33471;52.104;1.318;2023-06-24T02:51:19;101991.60;;;20.74;44.49
47706;BME280;33471;52.104;1.318;2023-06-24T02:53:47;101993.12;;;20.85;44.82
47706;BME280;33471;52.104;1.318;2023-06-24T02:56:15;101992.29;;;19.86;46.92
47706;BME280;33471;52.104;1.318;2023-06-24T02:58:43;101994.00;;;19.21;48.17
47706;BME280;33471;52.104;1.318;2023-06-24T03:01:11;101992.94;;;19.15;48.40
47706;BME280;33471;52.104;1.318;2023-06-24T03:03:38;101988.50;;;19.84;47.00
47706;BME280;33471;52.104;1.318;2023-06-24T03:06:07;101990.19;;;19.94;47.36
47706;BME280;33471;52.104;1.318;2023-06-24T03:08:35;101993.19;;;18.96;49.31
47706;BME280;33471;52.104;1.318;2023-06-24T03:11:02;101994.63;;;18.56;50.38
47706;BME280;33471;52.104;1.318;2023-06-24T03:13:29;101995.74;;;19.01;48.81
47706;BME280;33471;52.104;1.318;2023-06-24T03:15:57;101991.90;;;19.40;48.41
47706;BME280;33471;52.104;1.318;2023-06-24T03:18:24;101988.89;;;19.31;48.11
47706;BME280;33471;52.104;1.318;2023-06-24T03:20:51;101990.17;;;19.27;48.05
47706;BME280;33471;52.104;1.318;2023-06-24T03:23:19;101993.16;;;19.54;47.62
47706;BME280;33471;52.104;1.318;2023-06-24T03:25:46;101992.64;;;19.26;47.52
47706;BME280;33471;52.104;1.318;2023-06-24T03:28:14;101993.20;;;19.76;47.24
47706;BME280;33471;52.104;1.318;2023-06-24T03:30:41;101990.72;;;19.83;47.59
47706;BME280;33471;52.104;1.318;2023-06-24T03:33:08;101993.59;;;20.26;46.73
47706;BME280;33471;52.104;1.318;2023-06-24T03:35:35;101997.94;;;19.32;48.76
47706;BME280;33471;52.104;1.318;2023-06-24T03:38:02;101995.29;;;19.99;47.33
47706;BME280;33471;52.104;1.318;2023-06-24T03:40:30;101997.90;;;20.08;47.17
47706;BME280;33471;52.104;1.318;2023-06-24T03:42:56;102002.69;;;20.33;46.56
47706;BME280;33471;52.104;1.318;2023-06-24T03:45:23;102001.42;;;20.07;46.31
47706;BME280;33471;52.104;1.318;2023-06-24T03:47:51;102001.84;;;19.44;47.57
47706;BME280;33471;52.104;1.318;2023-06-24T03:50:18;101997.72;;;19.59;48.10
47706;BME280;33471;52.104;1.318;2023-06-24T03:52:45;102000.96;;;19.25;48.89
47706;BME280;33471;52.104;1.318;2023-06-24T03:55:13;101995.46;;;19.36;48.30
47706;BME280;33471;52.104;1.318;2023-06-24T03:57:40;101993.88;;;19.80;48.24
47706;BME280;33471;52.104;1.318;2023-06-24T04:00:08;101990.80;;;19.53;48.29
47706;BME280;33471;52.104;1.318;2023-06-24T04:02:35;101994.05;;;19.49;49.40
47706;BME280;33471;52.104;1.318;2023-06-24T04:05:02;102003.03;;;18.57;51.12
47706;BME280;33471;52.104;1.318;2023-06-24T04:07:30;101996.31;;;19.55;49.27
47706;BME280;33471;52.104;1.318;2023-06-24T04:09:57;102002.32;;;19.21;50.27
47706;BME280;33471;52.104;1.318;2023-06-24T04:12:24;102010.36;;;18.34;51.38
47706;BME280;33471;52.104;1.318;2023-06-24T04:14:51;102002.51;;;19.48;49.32
47706;BME280;33471;52.104;1.318;2023-06-24T04:17:18;102011.07;;;17.93;52.23
47706;BME280;33471;52.104;1.318;2023-06-24T04:19:45;102006.94;;;19.22;50.04
47706;BME280;33471;52.104;1.318;2023-06-24T04:22:12;102005.70;;;19.33;49.19
47706;BME280;33471;52.104;1.318;2023-06-24T04:24:40;102012.32;;;19.35;49.18
47706;BME280;33471;52.104;1.318;2023-06-24T04:27:07;102017.68;;;19.67;48.29
47706;BME280;33471;52.104;1.318;2023-06-24T04:29:34;102015.81;;;20.39;47.51
47706;BME280;33471;52.104;1.318;2023-06-24T04:32:02;102015.23;;;20.75;46.59
47706;BME280;33471;52.104;1.318;2023-06-24T04:34:29;102017.32;;;20.28;47.64
47706;BME280;33471;52.104;1.318;2023-06-24T04:36:56;102020.04;;;20.39;47.51
47706;BME280;33471;52.104;1.318;2023-06-24T04:39:24;102025.94;;;20.34;47.23
47706;BME280;33471;52.104;1.318;2023-06-24T04:41:51;102029.43;;;20.02;47.88
47706;BME280;33471;52.104;1.318;2023-06-24T04:44:18;102028.35;;;20.47;47.76
47706;BME280;33471;52.104;1.318;2023-06-24T04:46:45;102024.38;;;20.11;48.52
47706;BME280;33471;52.104;1.318;2023-06-24T04:49:12;102020.86;;;19.48;49.57
47706;BME280;33471;52.104;1.318;2023-06-24T04:51:40;102016.38;;;20.63;46.90
47706;BME280;33471;52.104;1.318;2023-06-24T04:54:07;102019.26;;;21.56;45.50
47706;BME280;33471;52.104;1.318;2023-06-24T04:56:34;102019.56;;;21.69;44.16
47706;BME280;33471;52.104;1.318;2023-06-24T04:59:01;102018.32;;;21.66;44.44
47706;BME280;33471;52.104;1.318;2023-06-24T05:01:28;102018.54;;;22.21;42.23
47706;BME280;33471;52.104;1.318;2023-06-24T05:03:56;102021.52;;;22.81;42.29
47706;BME280;33471;52.104;1.318;2023-06-24T05:06:23;102016.76;;;20.99;45.33
47706;BME280;33471;52.104;1.318;2023-06-24T05:08:50;102015.80;;;22.34;43.93
47706;BME280;33471;52.104;1.318;2023-06-24T05:11:18;102013.15;;;22.03;43.62
47706;BME280;33471;52.104;1.318;2023-06-24T05:13:45;102016.86;;;22.44;43.17
47706;BME280;33471;52.104;1.318;2023-06-24T05:16:13;102018.96;;;21.72;44.71
47706;BME280;33471;52.104;1.318;2023-06-24T05:18:41;102020.53;;;22.74;42.05
47706;BME280;33471;52.104;1.318;2023-06-24T05:21:08;102019.44;;;22.89;42.01
47706;BME280;33471;52.104;1.318;2023-06-24T05:23:35;102014.82;;;21.38;44.67
47706;BME280;33471;52.104;1.318;2023-06-24T05:26:02;102012.49;;;21.96;44.47
47706;BME280;33471;52.104;1.318;2023-06-24T05:28:30;102016.46;;;21.16;45.88
47706;BME280;33471;52.104;1.318;2023-06-24T05:30:57;102015.63;;;19.90;49.04
47706;BME280;33471;52.104;1.318;2023-06-24T05:33:25;102017.60;;;20.55;47.57
47706;BME280;33471;52.104;1.318;2023-06-24T05:35:52;102014.35;;;20.87;46.36
47706;BME280;33471;52.104;1.318;2023-06-24T05:38:19;102016.44;;;21.07;46.37
47706;BME280;33471;52.104;1.318;2023-06-24T05:40:47;102017.43;;;21.41;45.60
47706;BME280;33471;52.104;1.318;2023-06-24T05:43:14;102017.65;;;21.50;46.17
47706;BME280;33471;52.104;1.318;2023-06-24T05:45:41;102015.69;;;21.96;45.81
47706;BME280;33471;52.104;1.318;2023-06-24T05:48:08;102015.37;;;22.28;45.02
47706;BME280;33471;52.104;1.318;2023-06-24T05:50:36;102015.86;;;21.62;45.65
47706;BME280;33471;52.104;1.318;2023-06-24T05:53:03;102023.41;;;22.35;44.80
47706;BME280;33471;52.104;1.318;2023-06-24T05:55:30;102020.57;;;22.24;44.06
47706;BME280;33471;52.104;1.318;2023-06-24T05:57:58;102023.26;;;23.47;41.90
47706;BME280;33471;52.104;1.318;2023-06-24T06:00:25;102024.02;;;22.91;43.18
47706;BME280;33471;52.104;1.318;2023-06-24T06:02:52;102028.54;;;23.13;42.61
47706;BME280;33471;52.104;1.318;2023-06-24T06:05:19;102031.03;;;22.47;44.03
47706;BME280;33471;52.104;1.318;2023-06-24T06:07:47;102029.12;;;21.78;45.45
47706;BME280;33471;52.104;1.318;2023-06-24T06:10:14;102029.75;;;21.95;45.95
47706;BME280;33471;52.104;1.318;2023-06-24T06:12:41;102031.36;;;21.53;46.76
47706;BME280;33471;52.104;1.318;2023-06-24T06:15:10;102031.64;;;22.26;45.49
47706;BME280;33471;52.104;1.318;2023-06-24T06:17:37;102032.37;;;21.62;46.98
47706;BME280;33471;52.104;1.318;2023-06-24T06:20:06;102030.90;;;22.26;45.91
47706;BME280;33471;52.104;1.318;2023-06-24T06:22:33;102033.58;;;22.38;45.54
47706;BME280;33471;52.104;1.318;2023-06-24T06:25:00;102035.17;;;23.19;44.39
47706;BME280;33471;52.104;1.318;2023-06-24T06:27:28;102032.90;;;22.48;45.34
47706;BME280;33471;52.104;1.318;2023-06-24T06:29:55;102037.92;;;22.22;46.33
47706;BME280;33471;52.104;1.318;2023-06-24T06:32:22;102039.55;;;22.72;44.61
47706;BME280;33471;52.104;1.318;2023-06-24T06:34:50;102043.34;;;23.19;44.65
47706;BME280;33471;52.104;1.318;2023-06-24T06:37:17;102049.49;;;23.02;44.52
47706;BME280;33471;52.104;1.318;2023-06-24T06:39:44;102050.50;;;21.51;46.26
47706;BME280;33471;52.104;1.318;2023-06-24T06:42:11;102047.74;;;22.28;45.16
47706;BME280;33471;52.104;1.318;2023-06-24T06:44:39;102048.18;;;22.50;44.91
47706;BME280;33471;52.104;1.318;2023-06-24T06:47:06;102050.35;;;21.94;46.61
47706;BME280;33471;52.104;1.318;2023-06-24T06:49:35;102045.73;;;23.17;44.78
47706;BME280;33471;52.104;1.318;2023-06-24T06:52:03;102048.22;;;23.57;43.52
47706;BME280;33471;52.104;1.318;2023-06-24T06:54:30;102043.23;;;22.66;44.67
47706;BME280;33471;52.104;1.318;2023-06-24T06:57:01;102042.05;;;23.71;42.63
47706;BME280;33471;52.104;1.318;2023-06-24T06:59:28;102046.60;;;23.19;43.21
47706;BME280;33471;52.104;1.318;2023-06-24T07:01:55;102045.77;;;23.19;43.58
47706;BME280;33471;52.104;1.318;2023-06-24T07:04:23;102045.69;;;22.52;44.34
47706;BME280;33471;52.104;1.318;2023-06-24T07:06:50;102047.43;;;23.48;43.03
47706;BME280;33471;52.104;1.318;2023-06-24T07:09:19;102043.95;;;22.64;44.16
47706;BME280;33471;52.104;1.318;2023-06-24T07:11:46;102044.65;;;22.98;43.57
47706;BME280;33471;52.104;1.318;2023-06-24T07:14:13;102040.89;;;23.44;42.75
47706;BME280;33471;52.104;1.318;2023-06-24T07:16:41;102040.21;;;23.76;43.11
47706;BME280;33471;52.104;1.318;2023-06-24T07:19:08;102040.77;;;23.55;42.13
47706;BME280;33471;52.104;1.318;2023-06-24T07:21:37;102045.00;;;22.72;44.03
47706;BME280;33471;52.104;1.318;2023-06-24T07:24:04;102047.67;;;23.55;43.28
47706;BME280;33471;52.104;1.318;2023-06-24T07:26:31;102047.31;;;23.43;42.63
47706;BME280;33471;52.104;1.318;2023-06-24T07:28:59;102050.73;;;22.89;43.93
47706;BME280;33471;52.104;1.318;2023-06-24T07:31:27;102052.41;;;24.15;41.98
47706;BME280;33471;52.104;1.318;2023-06-24T07:33:54;102051.17;;;22.93;44.48
47706;BME280;33471;52.104;1.318;2023-06-24T07:36:22;102051.27;;;23.82;43.93
47706;BME280;33471;52.104;1.318;2023-06-24T07:38:49;102054.33;;;23.19;43.24
47706;BME280;33471;52.104;1.318;2023-06-24T07:41:16;102052.42;;;23.77;41.86
47706;BME280;33471;52.104;1.318;2023-06-24T07:43:44;102057.61;;;23.10;42.72
47706;BME280;33471;52.104;1.318;2023-06-24T07:46:12;102056.61;;;22.74;44.27
47706;BME280;33471;52.104;1.318;2023-06-24T07:48:39;102054.29;;;21.95;45.21
47706;BME280;33471;52.104;1.318;2023-06-24T07:51:06;102060.92;;;23.06;43.39
47706;BME280;33471;52.104;1.318;2023-06-24T07:53:33;102059.16;;;22.96;43.26
47706;BME280;33471;52.104;1.318;2023-06-24T07:56:00;102052.82;;;23.90;42.14
47706;BME280;33471;52.104;1.318;2023-06-24T07:58:28;102054.00;;;22.97;43.79
47706;BME280;33471;52.104;1.318;2023-06-24T08:00:55;102050.83;;;23.94;42.29
47706;BME280;33471;52.104;1.318;2023-06-24T08:03:22;102047.24;;;25.08;40.76
47706;BME280;33471;52.104;1.318;2023-06-24T08:05:50;102044.91;;;24.45;40.74
47706;BME280;33471;52.104;1.318;2023-06-24T08:08:17;102043.50;;;24.66;40.43
47706;BME280;33471;52.104;1.318;2023-06-24T08:10:44;102047.46;;;24.70;39.71
47706;BME280;33471;52.104;1.318;2023-06-24T08:13:12;102047.27;;;23.83;40.27
47706;BME280;33471;52.104;1.318;2023-06-24T08:15:39;102051.05;;;23.45;40.61
47706;BME280;33471;52.104;1.318;2023-06-24T08:18:07;102041.45;;;24.45;39.38
47706;BME280;33471;52.104;1.318;2023-06-24T08:20:34;102046.84;;;23.06;42.22
47706;BME280;33471;52.104;1.318;2023-06-24T08:23:01;102040.11;;;23.57;42.15
47706;BME280;33471;52.104;1.318;2023-06-24T08:25:28;102037.34;;;25.06;39.30
47706;BME280;33471;52.104;1.318;2023-06-24T08:27:56;102034.72;;;26.02;38.12
47706;BME280;33471;52.104;1.318;2023-06-24T08:30:23;102037.51;;;26.15;37.53
47706;BME280;33471;52.104;1.318;2023-06-24T08:32:50;102037.55;;;25.18;38.33
47706;BME280;33471;52.104;1.318;2023-06-24T08:35:17;102038.78;;;24.47;39.01
47706;BME280;33471;52.104;1.318;2023-06-24T08:37:44;102040.36;;;23.83;38.49
47706;BME280;33471;52.104;1.318;2023-06-24T08:40:12;102045.50;;;23.75;39.91
47706;BME280;33471;52.104;1.318;2023-06-24T08:42:39;102040.52;;;24.23;39.18
47706;BME280;33471;52.104;1.318;2023-06-24T08:45:07;102042.62;;;24.00;39.05
47706;BME280;33471;52.104;1.318;2023-06-24T08:47:35;102039.85;;;24.25;39.30
47706;BME280;33471;52.104;1.318;2023-06-24T08:50:06;102035.16;;;24.97;38.06
47706;BME280;33471;52.104;1.318;2023-06-24T08:52:36;102033.97;;;24.49;38.49
47706;BME280;33471;52.104;1.318;2023-06-24T08:55:06;102033.72;;;25.22;37.56
47706;BME280;33471;52.104;1.318;2023-06-24T08:57:36;102031.00;;;25.88;37.03
47706;BME280;33471;52.104;1.318;2023-06-24T09:00:07;102028.45;;;26.62;36.54
47706;BME280;33471;52.104;1.318;2023-06-24T09:02:34;102033.38;;;25.15;37.35
47706;BME280;33471;52.104;1.318;2023-06-24T09:05:01;102026.79;;;25.75;36.52
47706;BME280;33471;52.104;1.318;2023-06-24T09:07:28;102026.31;;;25.54;36.62
47706;BME280;33471;52.104;1.318;2023-06-24T09:09:56;102023.88;;;25.73;35.68
47706;BME280;33471;52.104;1.318;2023-06-24T09:12:25;102027.83;;;25.47;35.63
47706;BME280;33471;52.104;1.318;2023-06-24T09:14:52;102026.55;;;25.71;35.95
47706;BME280;33471;52.104;1.318;2023-06-24T09:17:20;102025.17;;;24.86;36.82
47706;BME280;33471;52.104;1.318;2023-06-24T09:19:47;102022.68;;;25.64;35.65
47706;BME280;33471;52.104;1.318;2023-06-24T09:22:19;102024.86;;;26.92;34.12
47706;BME280;33471;52.104;1.318;2023-06-24T09:24:48;102019.11;;;26.64;34.72
47706;BME280;33471;52.104;1.318;2023-06-24T09:27:17;102018.03;;;26.35;33.99
47706;BME280;33471;52.104;1.318;2023-06-24T09:29:45;102019.41;;;25.70;36.06
47706;BME280;33471;52.104;1.318;2023-06-24T09:32:12;102021.51;;;26.62;34.83
47706;BME280;33471;52.104;1.318;2023-06-24T09:34:39;102019.01;;;27.04;33.67
47706;BME280;33471;52.104;1.318;2023-06-24T09:37:06;102013.59;;;27.27;33.45
47706;BME280;33471;52.104;1.318;2023-06-24T09:39:37;102009.68;;;27.17;34.11
47706;BME280;33471;52.104;1.318;2023-06-24T09:42:05;101992.68;;;28.70;32.41
47706;BME280;33471;52.104;1.318;2023-06-24T09:44:32;101999.04;;;28.78;31.18
47706;BME280;33471;52.104;1.318;2023-06-24T09:47:00;102000.72;;;28.00;32.33
47706;BME280;33471;52.104;1.318;2023-06-24T09:49:29;101998.21;;;26.65;34.21
47706;BME280;33471;52.104;1.318;2023-06-24T09:51:57;101991.01;;;28.52;31.53
47706;BME280;33471;52.104;1.318;2023-06-24T09:54:27;102001.44;;;27.91;32.58
47706;BME280;33471;52.104;1.318;2023-06-24T09:57:01;102001.30;;;27.60;33.09
47706;BME280;33471;52.104;1.318;2023-06-24T09:59:30;101989.50;;;28.90;31.41
47706;BME280;33471;52.104;1.318;2023-06-24T10:02:01;101986.89;;;28.96;32.05
47706;BME280;33471;52.104;1.318;2023-06-24T10:04:29;101994.53;;;26.77;34.05
47706;BME280;33471;52.104;1.318;2023-06-24T10:06:57;101988.97;;;26.19;34.15
47706;BME280;33471;52.104;1.318;2023-06-24T10:09:24;101984.43;;;28.02;31.85
47706;BME280;33471;52.104;1.318;2023-06-24T10:11:51;101985.99;;;28.53;31.00
47706;BME280;33471;52.104;1.318;2023-06-24T10:14:18;101980.73;;;30.05;29.85
47706;BME280;33471;52.104;1.318;2023-06-24T10:16:45;101977.36;;;30.12;29.57
47706;BME280;33471;52.104;1.318;2023-06-24T10:19:19;101980.10;;;29.38;30.50
47706;BME280;33471;52.104;1.318;2023-06-24T10:21:51;101974.68;;;30.33;29.85
47706;BME280;33471;52.104;1.318;2023-06-24T10:24:35;101976.34;;;30.28;30.09
47706;BME280;33471;52.104;1.318;2023-06-24T10:27:04;101977.91;;;28.91;30.19
47706;BME280;33471;52.104;1.318;2023-06-24T10:29:37;101974.01;;;28.50;30.65
47706;BME280;33471;52.104;1.318;2023-06-24T10:32:06;101975.77;;;29.08;30.30
47706;BME280;33471;52.104;1.318;2023-06-24T10:34:38;101976.76;;;29.77;30.10
47706;BME280;33471;52.104;1.318;2023-06-24T10:37:10;101972.27;;;29.80;29.97
47706;BME280;33471;52.104;1.318;2023-06-24T10:39:40;101963.86;;;29.85;29.35
47706;BME280;33471;52.104;1.318;2023-06-24T10:42:40;101963.95;;;31.84;28.72
47706;BME280;33471;52.104;1.318;2023-06-24T10:45:18;101965.32;;;29.50;29.36
47706;BME280;33471;52.104;1.318;2023-06-24T10:47:47;101957.44;;;30.82;28.38
47706;BME280;33471;52.104;1.318;2023-06-24T10:50:16;101959.00;;;30.80;29.08
47706;BME280;33471;52.104;1.318;2023-06-24T10:52:45;101955.95;;;30.75;28.28
47706;BME280;33471;52.104;1.318;2023-06-24T10:55:14;101949.39;;;31.27;28.11
47706;BME280;33471;52.104;1.318;2023-06-24T10:57:42;101952.80;;;31.32;27.76
47706;BME280;33471;52.104;1.318;2023-06-24T11:00:12;101950.27;;;29.81;28.55
47706;BME280;33471;52.104;1.318;2023-06-24T11:02:40;101953.30;;;30.14;28.54
47706;BME280;33471;52.104;1.318;2023-06-24T11:05:08;101953.17;;;30.31;28.33
47706;BME280;33471;52.104;1.318;2023-06-24T11:07:37;101958.59;;;29.81;29.48
47706;BME280;33471;52.104;1.318;2023-06-24T11:10:06;101954.24;;;30.38;30.64
47706;BME280;33471;52.104;1.318;2023-06-24T11:12:36;101949.90;;;30.61;30.86
47706;BME280;33471;52.104;1.318;2023-06-24T11:15:05;101956.44;;;31.34;30.96
47706;BME280;33471;52.104;1.318;2023-06-24T11:17:34;101956.50;;;31.34;31.62
47706;BME280;33471;52.104;1.318;2023-06-24T11:20:07;101954.04;;;31.40;31.64
47706;BME280;33471;52.104;1.318;2023-06-24T11:22:35;101953.74;;;31.36;32.61
47706;BME280;33471;52.104;1.318;2023-06-24T11:25:03;101954.38;;;30.75;32.37
47706;BME280;33471;52.104;1.318;2023-06-24T11:27:31;101955.68;;;30.51;32.91
47706;BME280;33471;52.104;1.318;2023-06-24T11:29:59;101948.31;;;30.55;33.28
47706;BME280;33471;52.104;1.318;2023-06-24T11:32:36;101947.08;;;29.42;34.57
47706;BME280;33471;52.104;1.318;2023-06-24T11:35:04;101954.52;;;29.84;34.60
47706;BME280;33471;52.104;1.318;2023-06-24T11:37:32;101955.00;;;29.96;35.07
47706;BME280;33471;52.104;1.318;2023-06-24T11:40:03;101950.91;;;29.78;34.70
47706;BME280;33471;52.104;1.318;2023-06-24T11:42:31;101950.70;;;29.63;34.79
47706;BME280;33471;52.104;1.318;2023-06-24T11:45:00;101949.48;;;29.90;34.71
47706;BME280;33471;52.104;1.318;2023-06-24T11:47:30;101952.36;;;30.06;34.53
47706;BME280;33471;52.104;1.318;2023-06-24T11:49:58;101944.16;;;29.61;34.87
47706;BME280;33471;52.104;1.318;2023-06-24T11:52:32;101940.63;;;29.71;34.85
47706;BME280;33471;52.104;1.318;2023-06-24T11:55:00;101939.64;;;29.56;34.69
47706;BME280;33471;52.104;1.318;2023-06-24T11:58:03;101939.11;;;29.79;34.93
47706;BME280;33471;52.104;1.318;2023-06-24T12:00:31;101936.08;;;28.97;37.03
47706;BME280;33471;52.104;1.318;2023-06-24T12:03:01;101936.39;;;28.69;37.00
47706;BME280;33471;52.104;1.318;2023-06-24T12:05:31;101935.12;;;28.09;37.89
47706;BME280;33471;52.104;1.318;2023-06-24T12:08:01;101933.48;;;28.70;36.42
47706;BME280;33471;52.104;1.318;2023-06-24T12:10:30;101931.80;;;29.55;35.17
47706;BME280;33471;52.104;1.318;2023-06-24T12:12:57;101923.63;;;30.30;34.95
47706;BME280;33471;52.104;1.318;2023-06-24T12:15:24;101920.56;;;30.37;34.06
47706;BME280;33471;52.104;1.318;2023-06-24T12:17:52;101921.12;;;31.02;32.90
47706;BME280;33471;52.104;1.318;2023-06-24T12:20:19;101926.97;;;31.40;31.64
47706;BME280;33471;52.104;1.318;2023-06-24T12:22:47;101922.44;;;31.28;31.76
47706;BME280;33471;52.104;1.318;2023-06-24T12:25:16;101921.67;;;31.04;32.48
47706;BME280;33471;52.104;1.318;2023-06-24T12:27:44;101917.28;;;31.42;32.30
47706;BME280;33471;52.104;1.318;2023-06-24T12:30:12;101911.49;;;31.33;31.85
47706;BME280;33471;52.104;1.318;2023-06-24T12:32:40;101911.36;;;31.86;33.06
47706;BME280;33471;52.104;1.318;2023-06-24T12:35:08;101912.49;;;30.85;32.58
47706;BME280;33471;52.104;1.318;2023-06-24T12:37:36;101914.01;;;31.91;33.16
47706;BME280;33471;52.104;1.318;2023-06-24T12:40:04;101905.07;;;31.23;31.80
47706;BME280;33471;52.104;1.318;2023-06-24T12:42:31;101905.30;;;31.33;33.82
47706;BME280;33471;52.104;1.318;2023-06-24T12:44:59;101909.46;;;30.70;33.88
47706;BME280;33471;52.104;1.318;2023-06-24T12:47:27;101904.74;;;30.66;33.75
47706;BME280;33471;52.104;1.318;2023-06-24T12:49:54;101904.73;;;29.96;35.98
47706;BME280;33471;52.104;1.318;2023-06-24T12:52:22;101907.89;;;31.06;32.80
47706;BME280;33471;52.104;1.318;2023-06-24T12:54:49;101908.05;;;31.38;32.22
47706;BME280;33471;52.104;1.318;2023-06-24T12:57:16;101908.93;;;32.08;31.79